Tropical Cyclones
[Index]
Main Index Home Page Stock Weather Photos Extreme Storms Discussion Storm News and Storm Chasing Reports Tropical Cyclones / Hurricanes / Typhoons Weather Data and Links Wild Fires / Bushfires Weather Observation Techniques Weather Picture Catalogue Tornado Pictures and Reports Stock Video Footage and DVDs for sale
Season 1958-1959 Tropical Cyclone 195925 Track Map
Season 1958-1959 Summaries: [BoM-AU] [JTWC-AU] [JTWC-SIO] [JTWC-SPAC] [JTWC-SH]
<<- Previous TC | JTWC 1958-1959 Season | Next TC ->>

click for intensity scale information  Lat/long Grid: Show Hide

 Date Labels: Show Hide

Joint Typhoon Warning Centre Cyclone Data

Name: 195925
Number: 365 / 5925

05 Mar 1959 12:00 UTC to 17 Mar 1959 00:00 UTC

    date/time    lat    long     hPa   cat  kts
1959-03-05 12    9.9   164.0                              
1959-03-05 18    9.9   163.5                              
1959-03-06 00   10.0   163.2                              
1959-03-06 06   10.1   163.0                              
1959-03-06 12   10.3   162.8                              
1959-03-06 18   10.4   162.5                              
1959-03-07 00   10.5   162.2                              
1959-03-07 06   10.7   162.0                              
1959-03-07 12   10.9   161.7                              
1959-03-07 18   10.9   161.5                              
1959-03-08 00   11.1   161.2                              
1959-03-08 06   11.6   160.7                              
1959-03-08 12   12.2   160.1                              
1959-03-08 18   12.8   159.7                              
1959-03-09 00   13.4   159.4                              
1959-03-09 06   14.0   159.3                              
1959-03-09 12   14.7   159.1                              
1959-03-09 18   15.2   159.0                              
1959-03-10 00   15.8   158.8                              
1959-03-10 06   16.6   158.4                              
1959-03-10 12   17.5   158.1                              
1959-03-10 18   18.2   158.3                              
1959-03-11 00   18.8   158.9                              
1959-03-11 06   19.1   159.7                              
1959-03-11 12   19.2   160.6                              
1959-03-11 18   19.2   161.4                              
1959-03-12 00   19.2   162.3                              
1959-03-12 06   19.2   163.2                              
1959-03-12 12   19.2   164.2                              
1959-03-12 18   19.2   165.1                              
1959-03-13 00   19.3   166.0                              
1959-03-13 06   20.5   168.4                              
1959-03-13 12   23.0   171.0                              
1959-03-13 18   25.9   171.8                              
1959-03-14 00   28.8   171.8                              
1959-03-14 06   31.1   171.2                              
1959-03-14 12   33.1   170.0                              
1959-03-14 18   34.5   166.3                              
1959-03-15 00   34.9   163.1                              
1959-03-15 06   34.1   162.9                              
1959-03-15 12   33.2   163.5                              
1959-03-15 18   32.9   164.4                              
1959-03-16 00   33.0   165.7                              
1959-03-16 06   33.6   167.8                              
1959-03-16 12   34.5   170.0                              
1959-03-16 18   35.7   171.3                              
1959-03-17 00   37.3   172.0                              
Winds are 1-min average.

Tropical cyclone tracks developed by Michael Bath using data from the Joint Typhoon Warning Centre Best Tracks and Google Maps.


[Australian Severe Weather index] [Copyright Notice] [Email Contacts] [Search This Site] [Privacy Policy]
Document: tropical_cyclone_195925.htm Updated: 18 September 2016